createdAt,value
2018-12-29T00:02:22.078Z,6.50
2018-12-29T00:04:49.477Z,6.67
2018-12-29T00:07:16.860Z,7.13
2018-12-29T00:09:44.392Z,6.70
2018-12-29T00:12:11.785Z,7.60
2018-12-29T00:14:39.305Z,7.20
2018-12-29T00:17:06.725Z,7.17
2018-12-29T00:19:34.141Z,6.80
2018-12-29T00:22:01.539Z,8.37
2018-12-29T00:24:28.954Z,9.87
2018-12-29T00:26:56.350Z,9.27
2018-12-29T00:29:23.770Z,6.80
2018-12-29T00:31:51.167Z,8.60
2018-12-29T00:34:18.585Z,9.20
2018-12-29T00:36:45.978Z,6.47
2018-12-29T00:39:13.399Z,6.53
2018-12-29T00:41:40.781Z,7.27
2018-12-29T00:44:08.204Z,7.07
2018-12-29T00:46:35.602Z,7.10
2018-12-29T00:49:03.084Z,7.70
2018-12-29T00:51:30.478Z,7.77
2018-12-29T00:53:57.905Z,6.23
2018-12-29T00:56:25.299Z,7.20
2018-12-29T00:58:52.794Z,6.90
2018-12-29T01:01:20.211Z,7.33
2018-12-29T01:03:47.602Z,7.60
2018-12-29T01:06:15.020Z,7.53
2018-12-29T01:08:42.410Z,8.23
2018-12-29T01:11:09.837Z,8.07
2018-12-29T01:13:37.322Z,9.07
2018-12-29T01:16:04.740Z,8.10
2018-12-29T01:18:32.129Z,7.37
2018-12-29T01:20:59.552Z,7.50
2018-12-29T01:23:27.108Z,8.37
2018-12-29T01:25:54.537Z,8.23
2018-12-29T01:28:21.927Z,7.77
2018-12-29T01:30:49.346Z,8.67
2018-12-29T01:33:16.730Z,8.30
2018-12-29T01:35:44.145Z,6.63
2018-12-29T01:38:11.540Z,8.43
2018-12-29T01:40:38.954Z,8.03
2018-12-29T01:43:06.340Z,8.17
2018-12-29T01:45:33.794Z,7.30
2018-12-29T01:48:01.185Z,6.37
2018-12-29T01:50:28.604Z,6.50
2018-12-29T01:52:56.003Z,6.23
2018-12-29T01:55:23.418Z,8.37
2018-12-29T01:57:50.796Z,6.13
2018-12-29T02:00:18.237Z,8.30
2018-12-29T02:02:45.611Z,6.37
2018-12-29T02:05:13.189Z,6.53
2018-12-29T02:07:40.571Z,6.10
2018-12-29T02:10:08.057Z,6.60
2018-12-29T02:12:35.452Z,6.77
2018-12-29T02:15:02.869Z,6.20
2018-12-29T02:17:30.255Z,7.00
2018-12-29T02:19:57.677Z,6.20
2018-12-29T02:22:25.068Z,6.27
2018-12-29T02:24:52.459Z,6.47
2018-12-29T02:27:19.870Z,6.20
2018-12-29T02:29:47.259Z,7.13
2018-12-29T02:32:14.678Z,6.03
2018-12-29T02:34:42.069Z,5.57
2018-12-29T02:37:09.571Z,5.60
2018-12-29T02:39:36.961Z,6.70
2018-12-29T02:42:04.385Z,5.83
2018-12-29T02:44:31.777Z,6.43
2018-12-29T02:46:59.192Z,6.40
2018-12-29T02:49:26.633Z,6.20
2018-12-29T02:51:54.057Z,6.43
2018-12-29T02:54:21.451Z,6.70
2018-12-29T02:56:48.878Z,6.70
2018-12-29T02:59:16.344Z,5.70
2018-12-29T03:01:43.835Z,6.13
2018-12-29T03:04:11.215Z,5.07
2018-12-29T03:06:38.639Z,6.40
2018-12-29T03:09:06.033Z,6.20
2018-12-29T03:11:33.456Z,5.60
2018-12-29T03:14:00.885Z,6.00
2018-12-29T03:16:28.392Z,6.27
2018-12-29T03:18:55.764Z,6.00
2018-12-29T03:21:23.195Z,7.10
2018-12-29T03:23:50.610Z,6.23
2018-12-29T03:26:18.039Z,6.27
2018-12-29T03:28:45.422Z,5.57
2018-12-29T03:31:12.843Z,6.20
2018-12-29T03:33:40.422Z,6.50
2018-12-29T03:36:07.837Z,7.17
2018-12-29T03:38:35.218Z,5.70
2018-12-29T03:41:02.610Z,6.73
2018-12-29T03:43:30.026Z,6.40
2018-12-29T03:45:57.425Z,5.50
2018-12-29T03:48:24.835Z,6.57
2018-12-29T03:50:52.223Z,6.20
2018-12-29T03:53:19.635Z,6.47
2018-12-29T03:55:47.041Z,6.83
2018-12-29T03:58:14.461Z,5.97
2018-12-29T04:00:41.851Z,7.27
2018-12-29T04:03:09.347Z,6.10
2018-12-29T04:05:36.736Z,5.90
2018-12-29T04:08:04.164Z,6.27
2018-12-29T04:10:31.545Z,6.10
2018-12-29T04:12:58.961Z,6.33
2018-12-29T04:15:26.417Z,7.10
2018-12-29T04:17:53.951Z,5.90
2018-12-29T04:20:21.346Z,7.00
2018-12-29T04:22:48.798Z,5.53
2018-12-29T04:25:16.190Z,5.10
2018-12-29T04:27:43.713Z,6.30
2018-12-29T04:30:11.093Z,6.47
2018-12-29T04:32:38.512Z,7.63
2018-12-29T04:35:05.947Z,6.13
2018-12-29T04:37:33.366Z,6.30
2018-12-29T04:40:00.754Z,6.10
2018-12-29T04:42:28.245Z,5.43
2018-12-29T04:44:55.679Z,5.67
2018-12-29T04:47:23.065Z,6.17
2018-12-29T04:49:50.490Z,7.00
2018-12-29T04:52:17.883Z,5.70
2018-12-29T04:54:45.291Z,6.40
2018-12-29T04:57:12.676Z,6.47
2018-12-29T04:59:40.093Z,5.37
2018-12-29T05:02:07.510Z,6.07
2018-12-29T05:04:34.957Z,4.80
2018-12-29T05:07:02.346Z,6.33
2018-12-29T05:09:29.771Z,5.40
2018-12-29T05:11:57.157Z,6.00
2018-12-29T05:14:24.579Z,6.33
2018-12-29T05:16:52.010Z,6.20
2018-12-29T05:19:19.474Z,6.07
2018-12-29T05:21:46.917Z,5.50
2018-12-29T05:24:14.333Z,6.20
2018-12-29T05:26:41.725Z,5.80
2018-12-29T05:29:09.218Z,4.70
2018-12-29T05:31:36.621Z,7.20
2018-12-29T05:34:04.041Z,6.47
2018-12-29T05:36:31.416Z,5.57
2018-12-29T05:38:58.837Z,5.03
2018-12-29T05:41:26.238Z,6.00
2018-12-29T05:43:53.654Z,5.97
2018-12-29T05:46:21.047Z,5.90
2018-12-29T05:48:48.454Z,5.70
2018-12-29T05:51:15.832Z,5.50
2018-12-29T05:53:43.251Z,5.87
2018-12-29T05:56:10.637Z,5.60
2018-12-29T05:58:38.048Z,5.17
2018-12-29T06:01:05.516Z,6.00
2018-12-29T06:03:32.939Z,6.03
2018-12-29T06:06:00.338Z,6.10
2018-12-29T06:08:27.722Z,6.63
2018-12-29T06:10:55.139Z,5.77
2018-12-29T06:13:22.598Z,5.30
2018-12-29T06:15:50.014Z,6.37
2018-12-29T06:18:17.409Z,6.30
2018-12-29T06:20:44.828Z,5.47
2018-12-29T06:23:12.223Z,6.27
2018-12-29T06:25:39.629Z,5.63
2018-12-29T06:28:07.017Z,5.30
2018-12-29T06:30:34.437Z,7.13
2018-12-29T06:33:01.833Z,5.50
2018-12-29T06:35:29.334Z,5.63
2018-12-29T06:37:56.716Z,5.50
2018-12-29T06:40:24.131Z,5.77
2018-12-29T06:42:51.513Z,5.90
2018-12-29T06:45:18.959Z,4.70
2018-12-29T06:47:46.336Z,5.97
2018-12-29T06:50:13.758Z,6.27
2018-12-29T06:52:41.142Z,5.90
2018-12-29T06:55:08.558Z,6.93
2018-12-29T06:57:35.944Z,6.63
2018-12-29T07:00:05.246Z,6.37
2018-12-29T07:02:32.628Z,5.77
2018-12-29T07:05:00.051Z,6.10
2018-12-29T07:07:27.437Z,5.50
2018-12-29T07:09:54.855Z,5.17
2018-12-29T07:12:22.285Z,7.07
2018-12-29T07:14:49.768Z,4.53
2018-12-29T07:17:17.155Z,6.50
2018-12-29T07:19:44.575Z,5.97
2018-12-29T07:22:12.014Z,5.80
2018-12-29T07:24:39.499Z,5.67
2018-12-29T07:27:06.887Z,6.03
2018-12-29T07:29:38.248Z,6.03
2018-12-29T07:32:03.339Z,5.17
2018-12-29T07:34:30.767Z,5.87
2018-12-29T07:36:58.166Z,5.90
2018-12-29T07:39:25.670Z,5.10
2018-12-29T07:41:53.105Z,6.07
2018-12-29T07:44:20.498Z,6.40
2018-12-29T07:46:49.797Z,5.17
2018-12-29T07:49:16.954Z,6.70
2018-12-29T07:51:44.370Z,6.77
2018-12-29T07:54:11.759Z,5.33
2018-12-29T07:56:39.207Z,6.33
2018-12-29T07:59:06.602Z,6.00
2018-12-29T08:01:34.022Z,6.10
2018-12-29T08:04:01.402Z,5.90
2018-12-29T08:06:28.812Z,5.97
2018-12-29T08:08:56.253Z,7.43
2018-12-29T08:11:23.670Z,6.40
2018-12-29T08:13:51.053Z,5.67
2018-12-29T08:16:18.471Z,6.50
2018-12-29T08:18:45.861Z,4.97
2018-12-29T08:21:13.286Z,6.47
2018-12-29T08:23:40.679Z,5.43
2018-12-29T08:26:08.097Z,6.80
2018-12-29T08:28:35.478Z,5.70
2018-12-29T08:31:02.889Z,5.93
2018-12-29T08:33:30.290Z,6.00
2018-12-29T08:35:57.737Z,6.53
2018-12-29T08:38:25.097Z,5.30
2018-12-29T08:40:52.518Z,7.00
2018-12-29T08:43:19.939Z,6.50
2018-12-29T08:45:47.356Z,6.43
2018-12-29T08:48:14.854Z,5.60
2018-12-29T08:50:42.261Z,5.43
2018-12-29T08:53:09.646Z,6.00
2018-12-29T08:55:37.059Z,6.27
2018-12-29T08:58:04.478Z,6.53
2018-12-29T09:00:31.889Z,6.40
2018-12-29T09:02:59.285Z,6.80
2018-12-29T09:05:26.699Z,6.40
2018-12-29T09:07:54.105Z,5.70
2018-12-29T09:10:21.528Z,8.10
2018-12-29T09:12:48.920Z,7.93
2018-12-29T09:15:16.402Z,7.40
2018-12-29T09:17:43.795Z,8.20
2018-12-29T09:20:11.292Z,6.70
2018-12-29T09:22:38.768Z,8.00
2018-12-29T09:25:06.206Z,6.07
2018-12-29T09:27:33.626Z,6.10
2018-12-29T09:30:01.011Z,5.70
2018-12-29T09:32:28.429Z,6.67
2018-12-29T09:34:55.817Z,7.00
2018-12-29T09:37:23.240Z,6.67
2018-12-29T09:39:50.626Z,5.97
2018-12-29T09:42:18.121Z,5.80
2018-12-29T09:44:45.547Z,6.43
2018-12-29T09:47:19.405Z,6.70
2018-12-29T09:49:42.116Z,6.50
2018-12-29T09:52:09.535Z,7.40
2018-12-29T09:54:36.925Z,6.40
2018-12-29T09:57:04.346Z,7.17
2018-12-29T09:59:31.829Z,25.40
2018-12-29T10:01:59.266Z,24.30
2018-12-29T10:04:26.657Z,11.33
2018-12-29T10:06:54.077Z,10.10
2018-12-29T10:09:21.474Z,11.10
2018-12-29T10:11:48.946Z,11.17
2018-12-29T10:14:16.373Z,9.63
2018-12-29T10:16:43.827Z,10.10
2018-12-29T10:19:11.250Z,9.67
2018-12-29T10:21:38.643Z,8.37
2018-12-29T10:24:06.070Z,8.27
2018-12-29T10:26:33.448Z,9.23
2018-12-29T10:29:00.930Z,9.10
2018-12-29T10:31:28.322Z,8.57
2018-12-29T10:33:55.739Z,8.83
2018-12-29T10:36:23.129Z,10.70
2018-12-29T10:38:50.550Z,8.30
2018-12-29T10:41:17.940Z,9.63
2018-12-29T10:43:45.362Z,9.17
2018-12-29T10:46:12.761Z,10.50
2018-12-29T10:48:40.179Z,8.50
2018-12-29T10:51:07.567Z,9.07
2018-12-29T10:53:34.983Z,8.77
2018-12-29T10:56:02.465Z,8.73
2018-12-29T10:58:29.845Z,10.20
2018-12-29T11:00:57.232Z,8.73
2018-12-29T11:03:24.723Z,9.47
2018-12-29T11:05:52.050Z,7.77
2018-12-29T11:08:19.485Z,8.93
2018-12-29T11:10:46.960Z,9.83
2018-12-29T11:13:14.379Z,9.10
2018-12-29T11:15:41.763Z,7.70
2018-12-29T11:18:09.270Z,8.63
2018-12-29T11:20:36.779Z,9.97
2018-12-29T11:23:04.193Z,9.73
2018-12-29T11:25:31.678Z,10.40
2018-12-29T11:27:59.196Z,9.13
2018-12-29T11:30:26.592Z,10.30
2018-12-29T11:32:54.178Z,9.50
2018-12-29T11:35:28.563Z,7.83
2018-12-29T11:37:50.579Z,8.63
2018-12-29T11:40:17.974Z,10.30
2018-12-29T11:42:45.356Z,9.43
2018-12-29T11:45:12.960Z,9.30
2018-12-29T11:47:40.345Z,8.70
2018-12-29T11:50:07.762Z,10.57
2018-12-29T11:52:35.156Z,10.90
2018-12-29T11:55:02.570Z,9.50
2018-12-29T11:57:29.968Z,8.10
2018-12-29T11:59:57.382Z,8.83
2018-12-29T12:02:24.867Z,7.97
2018-12-29T12:04:52.312Z,9.47
2018-12-29T12:07:19.706Z,9.30
2018-12-29T12:09:47.122Z,9.50
2018-12-29T12:12:14.515Z,9.17
2018-12-29T12:14:41.926Z,8.87
2018-12-29T12:17:09.319Z,8.97
2018-12-29T12:19:36.735Z,9.50
2018-12-29T12:22:04.155Z,8.90
2018-12-29T12:24:31.571Z,8.10
2018-12-29T12:26:58.961Z,8.90
2018-12-29T12:29:26.372Z,9.80
2018-12-29T12:31:53.773Z,8.90
2018-12-29T12:34:21.225Z,9.17
2018-12-29T12:36:48.612Z,8.40
2018-12-29T12:39:16.036Z,9.33
2018-12-29T12:41:43.421Z,8.40
2018-12-29T12:44:10.854Z,9.90
2018-12-29T12:46:38.804Z,9.27
2018-12-29T12:49:06.613Z,9.50
2018-12-29T12:51:34.014Z,9.20
2018-12-29T12:54:01.525Z,9.90
2018-12-29T12:56:28.930Z,13.37
2018-12-29T12:58:56.335Z,10.00
2018-12-29T13:01:24.121Z,9.97
2018-12-29T13:03:51.557Z,11.53
2018-12-29T13:06:18.958Z,13.37
2018-12-29T13:08:46.375Z,10.60
2018-12-29T13:11:13.765Z,10.97
2018-12-29T13:13:41.348Z,12.23
2018-12-29T13:16:08.783Z,11.33
2018-12-29T13:18:36.172Z,10.27
2018-12-29T13:21:03.594Z,10.40
2018-12-29T13:23:30.981Z,11.17
2018-12-29T13:25:58.411Z,9.37
2018-12-29T13:28:25.797Z,10.10
2018-12-29T13:30:53.221Z,8.60
2018-12-29T13:33:20.609Z,9.70
2018-12-29T13:35:48.031Z,10.03
2018-12-29T13:38:15.566Z,9.60
2018-12-29T13:40:44.647Z,10.13
2018-12-29T13:43:12.086Z,11.03
2018-12-29T13:45:39.505Z,9.57
2018-12-29T13:48:06.902Z,10.20
2018-12-29T13:50:34.320Z,9.60
2018-12-29T13:53:02.099Z,9.23
2018-12-29T13:55:29.603Z,12.40
2018-12-29T13:57:57.109Z,10.07
2018-12-29T14:00:24.537Z,11.03
2018-12-29T14:02:51.922Z,10.03
2018-12-29T14:05:19.342Z,9.50
2018-12-29T14:07:47.061Z,6.73
2018-12-29T14:10:14.469Z,9.47
2018-12-29T14:12:41.856Z,9.60
2018-12-29T14:15:09.351Z,9.40
2018-12-29T14:17:36.733Z,9.40
2018-12-29T14:20:04.586Z,8.83
2018-12-29T14:22:32.002Z,9.20
2018-12-29T14:24:59.396Z,9.90
2018-12-29T14:27:26.825Z,10.43
2018-12-29T14:29:54.221Z,10.40
2018-12-29T14:32:22.069Z,10.37
2018-12-29T14:34:49.453Z,8.17
2018-12-29T14:37:16.875Z,8.57
2018-12-29T14:39:44.263Z,8.70
2018-12-29T14:42:11.816Z,8.70
2018-12-29T14:44:39.213Z,8.43
2018-12-29T14:47:06.642Z,8.23
2018-12-29T14:49:34.028Z,8.57
2018-12-29T14:52:01.455Z,9.00
2018-12-29T14:54:28.850Z,8.80
2018-12-29T14:56:56.270Z,9.00
2018-12-29T14:59:23.882Z,8.87
2018-12-29T15:01:51.310Z,8.67
2018-12-29T15:04:18.696Z,8.27
2018-12-29T15:06:46.122Z,9.80
2018-12-29T15:09:13.586Z,10.37
2018-12-29T15:11:41.490Z,10.77
2018-12-29T15:14:08.909Z,9.90
2018-12-29T15:16:36.637Z,10.43
2018-12-29T15:19:04.133Z,10.40
2018-12-29T15:21:31.952Z,9.20
2018-12-29T15:23:59.350Z,8.50
2018-12-29T15:26:26.765Z,7.30
2018-12-29T15:28:54.159Z,9.30
2018-12-29T15:31:21.560Z,19.90
2018-12-29T15:33:48.991Z,11.20
2018-12-29T15:36:16.456Z,11.60
2018-12-29T15:38:43.904Z,10.10
2018-12-29T15:41:11.312Z,10.10
2018-12-29T15:43:38.711Z,9.50
2018-12-29T15:46:06.160Z,9.30
2018-12-29T15:48:33.661Z,8.27
2018-12-29T15:51:01.077Z,9.10
2018-12-29T15:53:28.497Z,8.67
2018-12-29T15:55:55.881Z,9.27
2018-12-29T15:58:23.297Z,7.97
2018-12-29T16:00:50.690Z,7.40
2018-12-29T16:03:18.185Z,8.70
2018-12-29T16:05:45.973Z,8.90
2018-12-29T16:08:13.614Z,8.63
2018-12-29T16:10:41.096Z,7.57
2018-12-29T16:13:08.510Z,8.27
2018-12-29T16:15:35.903Z,8.10
2018-12-29T16:18:03.314Z,8.43
2018-12-29T16:20:30.707Z,8.63
2018-12-29T16:22:58.120Z,8.10
2018-12-29T16:25:25.511Z,11.30
2018-12-29T16:27:52.944Z,8.23
2018-12-29T16:30:20.401Z,8.33
2018-12-29T16:32:48.225Z,8.30
2018-12-29T16:35:15.626Z,7.85
2018-12-29T16:37:43.030Z,7.20
2018-12-29T16:40:10.422Z,7.90
2018-12-29T16:42:37.849Z,8.47
2018-12-29T16:45:05.696Z,7.40
2018-12-29T16:47:33.137Z,7.13
2018-12-29T16:50:02.646Z,7.30
2018-12-29T16:52:29.985Z,7.77
2018-12-29T16:54:58.674Z,6.63
2018-12-29T16:57:26.089Z,8.37
2018-12-29T16:59:53.819Z,7.40
2018-12-29T17:02:22.462Z,7.40
2018-12-29T17:04:50.971Z,6.60
2018-12-29T17:07:19.249Z,7.80
2018-12-29T17:09:47.222Z,6.47
2018-12-29T17:12:15.834Z,7.03
2018-12-29T17:14:44.172Z,8.43
2018-12-29T17:17:12.476Z,6.93
2018-12-29T17:19:40.771Z,6.83
2018-12-29T17:22:09.022Z,6.83
2018-12-29T17:24:37.029Z,8.37
2018-12-29T17:27:05.277Z,8.00
2018-12-29T17:29:33.337Z,7.17
2018-12-29T17:32:01.312Z,6.80
2018-12-29T17:34:29.265Z,7.90
2018-12-29T17:36:57.669Z,8.77
2018-12-29T17:39:25.779Z,8.50
2018-12-29T17:41:53.882Z,10.13
2018-12-29T17:44:21.691Z,9.17
2018-12-29T17:46:49.864Z,9.27
2018-12-29T17:49:22.673Z,9.43
2018-12-29T17:51:47.268Z,9.60
2018-12-29T17:54:15.316Z,10.87
2018-12-29T17:56:43.395Z,10.50
2018-12-29T17:59:11.417Z,10.17
2018-12-29T18:01:39.291Z,11.97
2018-12-29T18:04:07.733Z,10.37
2018-12-29T18:06:35.585Z,9.93
2018-12-29T18:09:04.984Z,9.80
2018-12-29T18:11:32.676Z,10.10
2018-12-29T18:14:00.074Z,10.80
2018-12-29T18:16:27.470Z,11.03
2018-12-29T18:18:54.887Z,10.70
2018-12-29T18:21:22.289Z,11.73
2018-12-29T18:23:49.783Z,11.03
2018-12-29T18:26:17.464Z,19.10
2018-12-29T18:28:44.898Z,13.80
2018-12-29T18:31:12.284Z,11.00
2018-12-29T18:33:39.719Z,13.27
2018-12-29T18:36:07.129Z,13.67
2018-12-29T18:38:34.857Z,13.00
2018-12-29T18:41:02.519Z,14.83
2018-12-29T18:43:29.943Z,13.30
2018-12-29T18:45:57.332Z,12.17
2018-12-29T18:48:24.753Z,12.10
2018-12-29T18:50:52.406Z,13.13
2018-12-29T18:53:19.810Z,13.03
2018-12-29T18:55:47.201Z,13.03
2018-12-29T18:58:14.625Z,12.00
2018-12-29T19:00:42.209Z,12.73
2018-12-29T19:03:10.433Z,11.20
2018-12-29T19:05:37.825Z,11.47
2018-12-29T19:08:05.226Z,10.80
2018-12-29T19:10:32.740Z,11.60
2018-12-29T19:13:00.548Z,10.63
2018-12-29T19:15:27.966Z,10.57
2018-12-29T19:17:55.753Z,10.43
2018-12-29T19:20:23.493Z,10.57
2018-12-29T19:22:50.878Z,10.00
2018-12-29T19:25:18.296Z,9.40
2018-12-29T19:27:45.687Z,10.70
2018-12-29T19:30:13.177Z,10.27
2018-12-29T19:32:40.583Z,11.30
2018-12-29T19:35:07.994Z,9.80
2018-12-29T19:37:35.379Z,9.63
2018-12-29T19:40:02.793Z,9.40
2018-12-29T19:42:30.477Z,9.73
2018-12-29T19:44:57.901Z,10.10
2018-12-29T19:47:25.342Z,10.17
2018-12-29T19:49:53.836Z,8.60
2018-12-29T19:52:21.405Z,7.97
2018-12-29T19:54:48.828Z,9.10
2018-12-29T19:57:16.488Z,8.77
2018-12-29T19:59:44.318Z,15.30
2018-12-29T20:02:12.044Z,16.67
2018-12-29T20:04:39.470Z,16.55
2018-12-29T20:07:07.165Z,16.43
2018-12-29T20:09:34.590Z,13.57
2018-12-29T20:12:01.984Z,13.05
2018-12-29T20:14:29.479Z,12.85
2018-12-29T20:16:56.904Z,10.20
2018-12-29T20:19:24.470Z,9.60
2018-12-29T20:21:51.862Z,9.33
2018-12-29T20:24:19.682Z,8.87
2018-12-29T20:26:47.117Z,8.70
2018-12-29T20:29:14.611Z,7.13
2018-12-29T20:31:41.997Z,7.97
2018-12-29T20:34:09.421Z,7.87
2018-12-29T20:36:36.811Z,7.40
2018-12-29T20:39:05.798Z,8.23
2018-12-29T20:41:33.303Z,8.73
2018-12-29T20:44:00.927Z,7.97
2018-12-29T20:46:29.279Z,7.33
2018-12-29T20:48:56.711Z,9.30
2018-12-29T20:51:24.183Z,12.33
2018-12-29T20:53:51.569Z,10.43
2018-12-29T20:56:18.990Z,9.57
2018-12-29T20:58:46.374Z,8.87
2018-12-29T21:01:13.794Z,8.47
2018-12-29T21:03:41.612Z,9.00
2018-12-29T21:06:09.052Z,7.90
2018-12-29T21:08:36.750Z,8.80
2018-12-29T21:11:04.170Z,8.60
2018-12-29T21:13:31.553Z,7.87
2018-12-29T21:15:58.974Z,8.67
2018-12-29T21:18:26.359Z,8.07
2018-12-29T21:20:53.774Z,7.63
2018-12-29T21:23:21.469Z,8.30
2018-12-29T21:25:48.994Z,6.60
2018-12-29T21:28:16.386Z,7.23
2018-12-29T21:30:43.805Z,6.30
2018-12-29T21:33:11.237Z,7.87
2018-12-29T21:35:38.901Z,7.33
2018-12-29T21:38:07.478Z,7.47
2018-12-29T21:40:34.972Z,6.30
2018-12-29T21:43:02.490Z,7.07
2018-12-29T21:45:29.906Z,6.17
2018-12-29T21:47:57.294Z,6.70
2018-12-29T21:50:25.778Z,7.00
2018-12-29T21:52:53.746Z,6.40
2018-12-29T21:55:21.169Z,7.13
2018-12-29T21:57:48.558Z,6.43
2018-12-29T22:00:15.986Z,5.87
2018-12-29T22:02:43.373Z,5.63
2018-12-29T22:05:10.896Z,5.03
2018-12-29T22:07:38.686Z,6.40
2018-12-29T22:10:07.152Z,5.77
2018-12-29T22:12:34.579Z,5.10
2018-12-29T22:15:01.976Z,5.27
2018-12-29T22:17:29.397Z,5.20
2018-12-29T22:19:56.786Z,5.60
2018-12-29T22:22:24.516Z,5.43
2018-12-29T22:24:52.373Z,5.17
2018-12-29T22:27:19.782Z,4.53
2018-12-29T22:29:47.182Z,5.40
2018-12-29T22:32:14.599Z,5.53
2018-12-29T22:34:41.985Z,4.60
2018-12-29T22:37:09.607Z,4.73
2018-12-29T22:39:36.994Z,4.77
2018-12-29T22:42:04.423Z,5.20
2018-12-29T22:44:31.817Z,4.93
2018-12-29T22:46:59.242Z,3.90
2018-12-29T22:49:26.631Z,4.90
2018-12-29T22:51:54.340Z,4.37
2018-12-29T22:54:21.729Z,4.63
2018-12-29T22:56:49.250Z,4.73
2018-12-29T22:59:16.626Z,4.67
2018-12-29T23:01:44.137Z,5.27
2018-12-29T23:04:11.563Z,4.53
2018-12-29T23:06:38.973Z,4.20
2018-12-29T23:09:06.764Z,4.30
2018-12-29T23:11:34.256Z,4.50
2018-12-29T23:14:01.658Z,4.93
2018-12-29T23:16:29.062Z,4.10
2018-12-29T23:18:56.754Z,4.70
2018-12-29T23:21:24.170Z,4.07
2018-12-29T23:23:51.561Z,4.27
2018-12-29T23:26:19.043Z,5.60
2018-12-29T23:28:46.430Z,4.50
2018-12-29T23:31:13.853Z,4.83
2018-12-29T23:33:41.243Z,4.37
2018-12-29T23:36:08.890Z,3.97
2018-12-29T23:38:36.302Z,4.63
2018-12-29T23:41:03.821Z,4.00
2018-12-29T23:43:31.239Z,4.53
2018-12-29T23:45:58.633Z,9.03
2018-12-29T23:48:26.935Z,5.10
2018-12-29T23:51:05.141Z,4.90
2018-12-29T23:53:23.430Z,4.30
2018-12-29T23:55:51.250Z,4.30
2018-12-29T23:58:18.661Z,5.10
